イルクーツク の空港の天気 - METARとTAF

イルクーツク国際空港 ( UIII / IKT ) - ロシア イルクーツク
飛行場実況気象(Metar)
観測時間06/29 09:30 IRKT (06/29 01:30 UTC)
風向・風速北西 2m/s
視程10km以上
天気現象
少しの雲 雲底高度 1010m
気温23℃
湿度69%
気圧1013hPa
METARUIII 290130Z 32002MPS 280V010 9999 FEW033 23/17 Q1013 R30/CLRD60 NOSIG RMK QFE715/0954
過去の天気等 Google飛行場航空写真 Wunderground天気予報

過去48時間のMETAR

飛行場予報(TAF)
発表時間: 6/29 09:00 IRKT (6/29 01:00 UTC)
予報対象時間: 29日9時 IRKT ~ 29日14時 IRKT
風向・風速北西 6m/s
視程10km以上
全天の4割程度の積乱雲 雲底高度 1,370m
TAF AMD UIII 290100Z 2901/2906 32006MPS 9999 SCT045CB